DFOO/BOY METAR and TAF weather

Enter ICAO airport designator
Station Type Date Time Source
DFOO METAR 2019/12/14 06:00 UTC NOAA

DFOO 140600Z 06008KT CAVOK 22/05 Q1013


Station Type Date Time Source
DFOO Decoded METAR 2019/12/14 06:00 UTC NOAA

Bobo-Dioulasso, Burkina Faso (DFOO) 11-10N 004-19W 460M
Dec 14, 2019 - 01:00 AM EST / 2019.12.14 0600 UTC
Wind: from the ENE (060 degrees) at 9 MPH (8 KT):0
Visibility: greater than 7 mile(s):0
Temperature: 71 F (22 C)
Dew Point: 41 F (5 C)
Relative Humidity: 32%
Pressure (altimeter): 29.91 in. Hg (1013 hPa)
ob: DFOO 140600Z 06008KT CAVOK 22/05 Q1013
cycle: 6

Station Type Date Time Source
DFOO TAF 2019/12/14 06:15 UTC NOAA

TAF DFOO 140500Z 1406/1506 06010KT 8000 NSC
TEMPO 1406/1410 4000 HZ
TEMPO 1417/1420 4000 HZ

Example: see airport list